Terminal Aerodrome Forecast
Issued by NWS Cleveland, OH

Home | Current Version | Previous Version | Graphics & Text | Print | Product List | Glossary Off
Versions: 1 2 3 4 5 6 7 8 9 10 11 12 13 14 15 16 17 18 19 20 21 22 23 24 25 26 27 28 29 30 31

000
FTUS41 KCLE 041732
TAFCLE
TAF
KCLE 041732Z 0418/0524 21010KT P6SM SCT050
     FM041900 01008KT P6SM VCTS SCT030 BKN050CB
     FM050100 16005KT P6SM BKN200
     FM050800 18003KT 5SM BR BKN120
     FM051300 18004KT P6SM SCT050
     FM051800 01008KT P6SM SCT050=

USA.gov is the U.S. government's official web portal to all federal, state and local government web resources and services.